KEVW/EVW METAR and TAF weather

Enter ICAO airport designator
Station Type Date Time Source
KEVW METAR 2019/02/22 21:53 UTC NOAA

KEVW 222153Z AUTO 21006KT 10SM CLR M10/M14 A2981 RMK AO2 SLP158 T11001144


Station Type Date Time Source
KEVW Decoded METAR 2019/02/22 21:53 UTC NOAA

EVANSTON-UINTA COUNTY FIELD, WY, United States (KEVW) 41-16N 111-02W 2177M
Feb 22, 2019 - 04:53 PM EST / 2019.02.22 2153 UTC
Wind: from the SSW (210 degrees) at 7 MPH (6 KT):0
Visibility: 10 mile(s):0
Sky conditions: clear
Temperature: 14.0 F (-10.0 C)
Windchill: 3 F (-16 C):1
Dew Point: 6.1 F (-14.4 C)
Relative Humidity: 70%
Pressure (altimeter): 29.81 in. Hg (1009 hPa)
ob: KEVW 222153Z AUTO 21006KT 10SM CLR M10/M14 A2981 RMK AO2 SLP158 T11001144
cycle: 22

Station Type Date Time Source
KEVW TAF 2019/02/22 18:45 UTC NOAA

TAF KEVW 221741Z 2218/2318 33007KT P6SM SKC
FM230200 23006KT P6SM SKC
FM231300 22009KT P6SM SCT070


Example: see airport list